Terminal Aerodrome Forecast
Issued by NWS Cleveland, OH

Home | Current Version | Previous Version | Text Only | Print | Product List | Glossary On
Versions: 1 2 3 4 5 6 7 8 9 10 11 12 13 14 15 16 17 18 19
000
FTUS41 KCLE 141338 AAB
TAFMFD
TAF AMD
KMFD 141338Z 1414/1512 32010KT P6SM OVC025
      TEMPO 1414/1416 2SM -SHSN
     FM141900 30007KT P6SM SCT025 BKN035
     FM150400 VRB03KT P6SM SCT050 BKN200=

USA.gov is the U.S. government's official web portal to all federal, state and local government web resources and services.